createdAt,value
2022-11-30T00:00:09.803Z,1018.65
2022-11-30T00:01:09.780Z,1018.66
2022-11-30T00:02:09.751Z,1018.68
2022-11-30T00:03:09.582Z,1018.70
2022-11-30T00:04:09.547Z,1018.73
2022-11-30T00:05:09.903Z,1018.66
2022-11-30T00:06:09.415Z,1018.67
2022-11-30T00:07:09.246Z,1018.72
2022-11-30T00:08:09.164Z,1018.67
2022-11-30T00:09:09.082Z,1018.68
2022-11-30T00:10:09.041Z,1018.75
2022-11-30T00:11:08.950Z,1018.73
2022-11-30T00:12:08.892Z,1018.73
2022-11-30T00:13:08.837Z,1018.72
2022-11-30T00:14:08.754Z,1018.80
2022-11-30T00:15:08.708Z,1018.77
2022-11-30T00:16:08.612Z,1018.76
2022-11-30T00:17:08.583Z,1018.77
2022-11-30T00:18:08.472Z,1018.81
2022-11-30T00:19:08.413Z,1018.81
2022-11-30T00:20:08.351Z,1018.81
2022-11-30T00:21:08.256Z,1018.81
2022-11-30T00:22:08.279Z,1018.83
2022-11-30T00:23:08.141Z,1018.81
2022-11-30T00:24:08.071Z,1018.81
2022-11-30T00:25:08.047Z,1018.79
2022-11-30T00:26:07.934Z,1018.78
2022-11-30T00:27:07.856Z,1018.83
2022-11-30T00:28:07.776Z,1018.79
2022-11-30T00:29:07.734Z,1018.83
2022-11-30T00:30:07.758Z,1018.84
2022-11-30T00:31:07.673Z,1018.78
2022-11-30T00:32:07.843Z,1018.82
2022-11-30T00:33:07.614Z,1018.79
2022-11-30T00:34:07.517Z,1018.81
2022-11-30T00:35:07.601Z,1018.82
2022-11-30T00:36:07.408Z,1018.77
2022-11-30T00:37:07.204Z,1018.77
2022-11-30T00:38:07.227Z,1018.76
2022-11-30T00:39:07.145Z,1018.74
2022-11-30T00:40:07.242Z,1018.72
2022-11-30T00:41:06.913Z,1018.69
2022-11-30T00:42:07.048Z,1018.72
2022-11-30T00:43:06.955Z,1018.74
2022-11-30T00:44:07.017Z,1018.71
2022-11-30T00:45:06.899Z,1018.71
2022-11-30T00:46:06.747Z,1018.74
2022-11-30T00:47:06.673Z,1018.71
2022-11-30T00:48:06.574Z,1018.76
2022-11-30T00:49:06.397Z,1018.76
2022-11-30T00:50:06.433Z,1018.73
2022-11-30T00:51:06.303Z,1018.74
2022-11-30T00:52:06.143Z,1018.70
2022-11-30T00:53:06.074Z,1018.70
2022-11-30T00:54:05.999Z,1018.76
2022-11-30T00:55:05.955Z,1018.76
2022-11-30T00:56:05.985Z,1018.73
2022-11-30T00:57:05.966Z,1018.79
2022-11-30T00:58:05.747Z,1018.78
2022-11-30T00:59:05.845Z,1018.80
2022-11-30T01:00:05.624Z,1018.76
2022-11-30T01:01:05.882Z,1018.84
2022-11-30T01:02:05.589Z,1018.85
2022-11-30T01:03:05.503Z,1018.86
2022-11-30T01:04:05.454Z,1018.88
2022-11-30T01:05:05.385Z,1018.90
2022-11-30T01:06:05.734Z,1018.96
2022-11-30T01:07:05.209Z,1018.91
2022-11-30T01:08:05.079Z,1018.91
2022-11-30T01:09:05.340Z,1018.87
2022-11-30T01:10:04.898Z,1018.93
2022-11-30T01:11:04.847Z,1018.89
2022-11-30T01:12:04.772Z,1018.86
2022-11-30T01:13:04.736Z,1018.91
2022-11-30T01:14:04.622Z,1018.85
2022-11-30T01:15:04.587Z,1018.89
2022-11-30T01:16:04.560Z,1018.91
2022-11-30T01:17:04.525Z,1018.92
2022-11-30T01:18:04.389Z,1018.92
2022-11-30T01:19:04.486Z,1018.87
2022-11-30T01:20:04.456Z,1018.94
2022-11-30T01:21:04.497Z,1018.98
2022-11-30T01:22:04.631Z,1018.95
2022-11-30T01:23:04.133Z,1018.98
2022-11-30T01:24:04.072Z,1018.98
2022-11-30T01:25:04.071Z,1018.99
2022-11-30T01:26:03.924Z,1019.00
2022-11-30T01:27:03.794Z,1019.01
2022-11-30T01:28:04.083Z,1018.83
2022-11-30T01:29:03.886Z,1019.06
2022-11-30T01:30:03.797Z,1019.02
2022-11-30T01:31:03.658Z,1019.00
2022-11-30T01:32:03.587Z,1019.03
2022-11-30T01:33:03.356Z,1019.03
2022-11-30T01:34:03.579Z,1018.96
2022-11-30T01:35:03.357Z,1018.97
2022-11-30T01:36:03.237Z,1019.04
2022-11-30T01:37:03.532Z,1019.01
2022-11-30T01:38:03.293Z,1019.02
2022-11-30T01:39:03.451Z,1019.02
2022-11-30T01:40:03.288Z,1019.05
2022-11-30T01:41:03.055Z,1019.01
2022-11-30T01:42:02.818Z,1019.02
2022-11-30T01:43:02.773Z,1018.98
2022-11-30T01:44:02.612Z,1018.99
2022-11-30T01:45:02.585Z,1018.99
2022-11-30T01:46:02.827Z,1018.99
2022-11-30T01:47:02.597Z,1018.99
2022-11-30T01:48:02.481Z,1018.99
2022-11-30T01:49:02.253Z,1018.97
2022-11-30T01:50:02.458Z,1019.03
2022-11-30T01:51:02.204Z,1018.97
2022-11-30T01:52:02.117Z,1019.02
2022-11-30T01:53:02.112Z,1018.98
2022-11-30T01:54:02.067Z,1019.02
2022-11-30T01:55:01.916Z,1019.02
2022-11-30T01:56:01.822Z,1018.99
2022-11-30T01:57:01.725Z,1018.95
2022-11-30T01:58:01.746Z,1018.98
2022-11-30T01:59:01.699Z,1018.96
2022-11-30T02:00:01.614Z,1018.93
2022-11-30T02:01:01.788Z,1018.91
2022-11-30T02:02:01.554Z,1018.94
2022-11-30T02:03:01.363Z,1018.92
2022-11-30T02:04:01.217Z,1018.95
2022-11-30T02:05:01.155Z,1019.02
2022-11-30T02:06:01.086Z,1019.00
2022-11-30T02:07:01.093Z,1019.00
2022-11-30T02:08:01.253Z,1019.02
2022-11-30T02:09:01.095Z,1019.06
2022-11-30T02:10:01.038Z,1019.05
2022-11-30T02:11:00.709Z,1019.02
2022-11-30T02:12:00.790Z,1019.02
2022-11-30T02:13:00.751Z,1018.99
2022-11-30T02:14:00.699Z,1018.99
2022-11-30T02:15:00.602Z,1019.03
2022-11-30T02:16:00.704Z,1019.02
2022-11-30T02:17:00.436Z,1019.04
2022-11-30T02:18:00.653Z,1019.04
2022-11-30T02:19:00.277Z,1019.02
2022-11-30T02:20:00.154Z,1019.02
2022-11-30T02:21:00.111Z,1019.04
2022-11-30T02:22:00.020Z,1019.05
2022-11-30T02:22:59.973Z,1018.98
2022-11-30T02:23:59.952Z,1018.99
2022-11-30T02:24:59.762Z,1019.00
2022-11-30T02:25:59.747Z,1018.97
2022-11-30T02:26:59.771Z,1018.99
2022-11-30T02:27:59.713Z,1018.96
2022-11-30T02:28:59.762Z,1018.96
2022-11-30T02:29:59.548Z,1018.97
2022-11-30T02:30:59.577Z,1019.00
2022-11-30T02:31:59.387Z,1019.02
2022-11-30T02:32:59.306Z,1019.02
2022-11-30T02:33:59.177Z,1019.02
2022-11-30T02:34:59.406Z,1018.99
2022-11-30T02:35:59.299Z,1019.02
2022-11-30T02:36:58.957Z,1018.96
2022-11-30T02:37:58.875Z,1018.99
2022-11-30T02:38:58.835Z,1019.04
2022-11-30T02:39:58.777Z,1019.02
2022-11-30T02:40:58.847Z,1019.02
2022-11-30T02:41:58.658Z,1019.01
2022-11-30T02:42:58.661Z,1019.04
2022-11-30T02:43:58.498Z,1018.97
2022-11-30T02:44:58.411Z,1019.00
2022-11-30T02:45:58.479Z,1019.06
2022-11-30T02:46:58.539Z,1018.99
2022-11-30T02:47:58.384Z,1019.03
2022-11-30T02:48:58.145Z,1019.00
2022-11-30T02:49:58.029Z,1019.03
2022-11-30T02:50:57.996Z,1019.08
2022-11-30T02:51:57.910Z,1019.05
2022-11-30T02:52:57.842Z,1019.07
2022-11-30T02:53:57.808Z,1019.04
2022-11-30T02:54:57.707Z,1019.05
2022-11-30T02:55:57.648Z,1019.05
2022-11-30T02:56:57.700Z,1019.07
2022-11-30T02:57:57.472Z,1019.03
2022-11-30T02:58:57.458Z,1019.06
2022-11-30T02:59:57.404Z,1019.04
2022-11-30T03:00:57.662Z,1019.08
2022-11-30T03:01:57.657Z,1019.07
2022-11-30T03:02:57.218Z,1019.06
2022-11-30T03:03:57.103Z,1019.10
2022-11-30T03:04:57.145Z,1019.10
2022-11-30T03:05:57.021Z,1019.12
2022-11-30T03:06:56.982Z,1019.06
2022-11-30T03:07:57.055Z,1019.08
2022-11-30T03:08:56.764Z,1019.10
2022-11-30T03:09:56.692Z,1019.08
2022-11-30T03:10:56.709Z,1019.08
2022-11-30T03:11:56.590Z,1019.10
2022-11-30T03:12:56.518Z,1019.08
2022-11-30T03:13:56.620Z,1019.11
2022-11-30T03:14:56.830Z,1019.14
2022-11-30T03:15:56.465Z,1019.12
2022-11-30T03:16:56.317Z,1019.14
2022-11-30T03:17:56.456Z,1019.10
2022-11-30T03:18:56.057Z,1019.09
2022-11-30T03:19:56.252Z,1019.14
2022-11-30T03:20:56.032Z,1019.12
2022-11-30T03:21:55.848Z,1019.14
2022-11-30T03:22:55.865Z,1019.15
2022-11-30T03:23:55.720Z,1019.10
2022-11-30T03:24:55.805Z,1019.14
2022-11-30T03:25:55.591Z,1019.10
2022-11-30T03:26:55.514Z,1019.09
2022-11-30T03:27:55.607Z,1019.11
2022-11-30T03:28:55.771Z,1019.10
2022-11-30T03:29:55.392Z,1019.13
2022-11-30T03:30:55.248Z,1019.13
2022-11-30T03:31:55.187Z,1019.14
2022-11-30T03:32:55.297Z,1019.15
2022-11-30T03:33:55.025Z,1019.14
2022-11-30T03:34:55.026Z,1019.14
2022-11-30T03:35:54.926Z,1019.19
2022-11-30T03:36:54.897Z,1019.19
2022-11-30T03:37:54.826Z,1019.20
2022-11-30T03:38:54.663Z,1019.24
2022-11-30T03:39:58.199Z,1019.25
2022-11-30T03:40:54.542Z,1019.23
2022-11-30T03:41:54.470Z,1019.28
2022-11-30T03:42:54.410Z,1019.28
2022-11-30T03:43:54.620Z,1019.27
2022-11-30T03:44:54.306Z,1019.27
2022-11-30T03:45:54.330Z,1019.29
2022-11-30T03:46:54.221Z,1019.26
2022-11-30T03:47:54.044Z,1019.29
2022-11-30T03:48:53.963Z,1019.24
2022-11-30T03:49:54.103Z,1019.27
2022-11-30T03:50:53.912Z,1019.24
2022-11-30T03:51:53.862Z,1019.28
2022-11-30T03:52:53.776Z,1019.31
2022-11-30T03:53:53.781Z,1019.28
2022-11-30T03:54:53.631Z,1019.29
2022-11-30T03:55:53.833Z,1019.23
2022-11-30T03:56:53.682Z,1019.31
2022-11-30T03:57:53.836Z,1019.30
2022-11-30T03:58:53.276Z,1019.30
2022-11-30T03:59:53.266Z,1019.32
2022-11-30T04:00:53.275Z,1019.27
2022-11-30T04:01:53.341Z,1019.27
2022-11-30T04:02:53.342Z,1019.31
2022-11-30T04:03:53.222Z,1019.30
2022-11-30T04:04:53.540Z,1019.30
2022-11-30T04:05:53.244Z,1019.30
2022-11-30T04:06:52.895Z,1019.30
2022-11-30T04:07:53.096Z,1019.32
2022-11-30T04:08:52.604Z,1019.34
2022-11-30T04:09:52.615Z,1019.29
2022-11-30T04:10:52.504Z,1019.33
2022-11-30T04:11:52.432Z,1019.36
2022-11-30T04:12:52.481Z,1019.37
2022-11-30T04:13:52.475Z,1019.36
2022-11-30T04:14:52.336Z,1019.38
2022-11-30T04:15:52.555Z,1019.37
2022-11-30T04:16:52.228Z,1019.40
2022-11-30T04:17:52.132Z,1019.42
2022-11-30T04:18:52.146Z,1019.39
2022-11-30T04:19:51.864Z,1019.43
2022-11-30T04:20:51.803Z,1019.41
2022-11-30T04:21:51.736Z,1019.42
2022-11-30T04:22:51.676Z,1019.44
2022-11-30T04:23:51.615Z,1019.44
2022-11-30T04:24:51.892Z,1019.44
2022-11-30T04:25:51.577Z,1019.37
2022-11-30T04:26:51.465Z,1019.41
2022-11-30T04:27:51.606Z,1019.33
2022-11-30T04:28:51.353Z,1019.32
2022-11-30T04:29:51.316Z,1019.33
2022-11-30T04:30:51.066Z,1019.34
2022-11-30T04:31:51.019Z,1019.34
2022-11-30T04:32:50.971Z,1019.28
2022-11-30T04:33:50.961Z,1019.35
2022-11-30T04:34:51.170Z,1019.37
2022-11-30T04:35:50.883Z,1019.41
2022-11-30T04:36:52.957Z,1019.41
2022-11-30T04:37:50.850Z,1019.42
2022-11-30T04:38:50.551Z,1019.42
2022-11-30T04:39:50.505Z,1019.46
2022-11-30T04:40:50.383Z,1019.46
2022-11-30T04:41:50.465Z,1019.49
2022-11-30T04:42:51.170Z,1019.52
2022-11-30T04:43:50.824Z,1019.52
2022-11-30T04:44:50.362Z,1019.56
2022-11-30T04:45:50.289Z,1019.55
2022-11-30T04:46:49.997Z,1019.60
2022-11-30T04:47:49.996Z,1019.60
2022-11-30T04:48:49.883Z,1019.60
2022-11-30T04:49:49.799Z,1019.62
2022-11-30T04:50:49.753Z,1019.70
2022-11-30T04:51:49.639Z,1019.59
2022-11-30T04:52:49.559Z,1019.63
2022-11-30T04:53:49.680Z,1019.63
2022-11-30T04:54:50.261Z,1019.60
2022-11-30T04:55:49.356Z,1019.63
2022-11-30T04:56:49.366Z,1019.57
2022-11-30T04:57:49.242Z,1019.66
2022-11-30T04:58:49.211Z,1019.59
2022-11-30T04:59:49.204Z,1019.59
2022-11-30T05:00:49.330Z,1019.64
2022-11-30T05:01:49.193Z,1019.60
2022-11-30T05:02:52.729Z,1019.61
2022-11-30T05:03:48.837Z,1019.59
2022-11-30T05:04:49.315Z,1019.62
2022-11-30T05:05:48.979Z,1019.63
2022-11-30T05:06:48.870Z,1019.60
2022-11-30T05:07:48.994Z,1019.65
2022-11-30T05:08:48.740Z,1019.61
2022-11-30T05:09:48.430Z,1019.61
2022-11-30T05:10:52.881Z,1019.62
2022-11-30T05:11:48.235Z,1019.59
2022-11-30T05:12:48.284Z,1019.64
2022-11-30T05:13:48.171Z,1019.64
2022-11-30T05:14:48.339Z,1019.63
2022-11-30T05:15:48.091Z,1019.63
2022-11-30T05:16:47.889Z,1019.64
2022-11-30T05:17:47.870Z,1019.66
2022-11-30T05:18:47.834Z,1019.67
2022-11-30T05:19:47.762Z,1019.68
2022-11-30T05:20:47.634Z,1019.80
2022-11-30T05:21:47.672Z,1019.73
2022-11-30T05:22:47.538Z,1019.75
2022-11-30T05:23:47.475Z,1019.78
2022-11-30T05:24:48.136Z,1019.71
2022-11-30T05:25:47.679Z,1019.79
2022-11-30T05:26:47.520Z,1019.78
2022-11-30T05:27:47.210Z,1019.81
2022-11-30T05:28:47.082Z,1019.84
2022-11-30T05:29:47.182Z,1019.85
2022-11-30T05:30:47.207Z,1019.86
2022-11-30T05:31:47.022Z,1019.88
2022-11-30T05:32:46.931Z,1019.89
2022-11-30T05:33:46.749Z,1019.87
2022-11-30T05:34:51.082Z,1019.87
2022-11-30T05:35:46.706Z,1019.90
2022-11-30T05:36:46.543Z,1019.86
2022-11-30T05:37:46.453Z,1019.87
2022-11-30T05:38:46.402Z,1019.84
2022-11-30T05:39:46.386Z,1019.92
2022-11-30T05:40:46.285Z,1019.86
2022-11-30T05:41:46.244Z,1019.92
2022-11-30T05:42:46.280Z,1019.86
2022-11-30T05:43:46.185Z,1019.86
2022-11-30T05:44:46.252Z,1019.88
2022-11-30T05:45:45.899Z,1019.92
2022-11-30T05:46:45.887Z,1019.90
2022-11-30T05:47:45.808Z,1019.94
2022-11-30T05:48:45.748Z,1019.92
2022-11-30T05:49:45.704Z,1019.96
2022-11-30T05:50:46.015Z,1019.97
2022-11-30T05:51:45.525Z,1019.97
2022-11-30T05:52:45.676Z,1019.95
2022-11-30T05:53:45.472Z,1019.99
2022-11-30T05:54:45.824Z,1019.98
2022-11-30T05:55:45.279Z,1019.99
2022-11-30T05:56:47.912Z,1020.00
2022-11-30T05:57:45.190Z,1019.99
2022-11-30T05:58:45.020Z,1019.99
2022-11-30T05:59:45.109Z,1020.01
2022-11-30T06:00:44.948Z,1020.04
2022-11-30T06:01:44.898Z,1020.04
2022-11-30T06:02:44.895Z,1020.05
2022-11-30T06:03:44.806Z,1020.07
2022-11-30T06:04:44.732Z,1020.09
2022-11-30T06:05:44.985Z,1020.11
2022-11-30T06:06:44.485Z,1020.13
2022-11-30T06:07:44.449Z,1020.11
2022-11-30T06:08:44.450Z,1020.12
2022-11-30T06:09:44.735Z,1020.10
2022-11-30T06:10:44.241Z,1020.16
2022-11-30T06:11:44.168Z,1020.14
2022-11-30T06:12:44.142Z,1020.17
2022-11-30T06:13:44.121Z,1020.20
2022-11-30T06:14:44.199Z,1020.18
2022-11-30T06:15:43.830Z,1020.17
2022-11-30T06:16:43.997Z,1020.21
2022-11-30T06:17:43.775Z,1020.19
2022-11-30T06:18:43.898Z,1020.24
2022-11-30T06:19:43.614Z,1020.26
2022-11-30T06:20:43.526Z,1020.23
2022-11-30T06:21:43.575Z,1020.25
2022-11-30T06:22:43.444Z,1020.21
2022-11-30T06:23:43.528Z,1020.25
2022-11-30T06:24:43.356Z,1020.22
2022-11-30T06:25:43.340Z,1020.23
2022-11-30T06:26:43.212Z,1020.22
2022-11-30T06:27:43.508Z,1020.21
2022-11-30T06:28:46.716Z,1020.30
2022-11-30T06:29:43.062Z,1020.25
2022-11-30T06:30:43.485Z,1020.29
2022-11-30T06:31:43.134Z,1020.30
2022-11-30T06:32:42.988Z,1020.30
2022-11-30T06:33:42.892Z,1020.28
2022-11-30T06:34:42.579Z,1020.29
2022-11-30T06:35:42.528Z,1020.35
2022-11-30T06:36:42.612Z,1020.31
2022-11-30T06:37:42.453Z,1020.31
2022-11-30T06:38:42.295Z,1020.34
2022-11-30T06:40:08.852Z,1020.32
2022-11-30T06:40:42.153Z,1020.35
2022-11-30T06:41:42.044Z,1020.35
2022-11-30T06:42:42.072Z,1020.37
2022-11-30T06:43:42.009Z,1020.34
2022-11-30T06:44:41.945Z,1020.38
2022-11-30T06:45:42.006Z,1020.36
2022-11-30T06:46:41.786Z,1020.40
2022-11-30T06:47:41.951Z,1020.40
2022-11-30T06:48:41.581Z,1020.43
2022-11-30T06:49:41.486Z,1020.42
2022-11-30T06:50:45.510Z,1020.46
2022-11-30T06:51:41.389Z,1020.41
2022-11-30T06:52:41.316Z,1020.44
2022-11-30T06:53:41.314Z,1020.47
2022-11-30T06:54:41.132Z,1020.46
2022-11-30T06:55:41.081Z,1020.46
2022-11-30T06:56:41.015Z,1020.43
2022-11-30T06:57:40.950Z,1020.48
2022-11-30T06:58:40.917Z,1020.48
2022-11-30T06:59:40.850Z,1020.50
2022-11-30T07:00:40.754Z,1020.49
2022-11-30T07:01:40.645Z,1020.50
2022-11-30T07:02:40.588Z,1020.51
2022-11-30T07:03:40.985Z,1020.54
2022-11-30T07:04:40.499Z,1020.54
2022-11-30T07:05:40.439Z,1020.49
2022-11-30T07:06:40.308Z,1020.49
2022-11-30T07:07:40.350Z,1020.55
2022-11-30T07:08:40.242Z,1020.56
2022-11-30T07:09:40.117Z,1020.52
2022-11-30T07:10:40.062Z,1020.52
2022-11-30T07:11:40.060Z,1020.57
2022-11-30T07:12:39.918Z,1020.58
2022-11-30T07:13:39.935Z,1020.59
2022-11-30T07:14:39.834Z,1020.60
2022-11-30T07:15:39.725Z,1020.62
2022-11-30T07:16:39.728Z,1020.62
2022-11-30T07:17:39.552Z,1020.63
2022-11-30T07:18:39.559Z,1020.60
2022-11-30T07:19:39.460Z,1020.65
2022-11-30T07:20:39.380Z,1020.69
2022-11-30T07:21:39.285Z,1020.67
2022-11-30T07:22:39.221Z,1020.69
2022-11-30T07:23:39.250Z,1020.61
2022-11-30T07:24:39.088Z,1020.67
2022-11-30T07:25:39.003Z,1020.72
2022-11-30T07:26:39.033Z,1020.74
2022-11-30T07:27:38.970Z,1020.69
2022-11-30T07:28:38.892Z,1020.73
2022-11-30T07:29:38.799Z,1020.76
2022-11-30T07:30:38.711Z,1020.74
2022-11-30T07:31:38.665Z,1020.80
2022-11-30T07:32:38.543Z,1020.76
2022-11-30T07:33:38.643Z,1020.75
2022-11-30T07:34:38.407Z,1020.77
2022-11-30T07:35:38.320Z,1020.77
2022-11-30T07:36:38.548Z,1020.80
2022-11-30T07:37:38.228Z,1020.80
2022-11-30T07:38:38.209Z,1020.84
2022-11-30T07:39:38.045Z,1020.83
2022-11-30T07:40:38.015Z,1020.81
2022-11-30T07:41:37.925Z,1020.89
2022-11-30T07:42:37.863Z,1020.84
2022-11-30T07:43:37.800Z,1020.90
2022-11-30T07:44:37.737Z,1020.85
2022-11-30T07:45:37.704Z,1020.88
2022-11-30T07:46:37.599Z,1020.89
2022-11-30T07:47:37.581Z,1020.89
2022-11-30T07:48:37.423Z,1020.90
2022-11-30T07:49:37.393Z,1020.89
2022-11-30T07:50:37.333Z,1020.86
2022-11-30T07:51:37.204Z,1020.87
2022-11-30T07:52:37.223Z,1020.87
2022-11-30T07:53:37.276Z,1020.90
2022-11-30T07:54:37.040Z,1020.88
2022-11-30T07:55:36.957Z,1020.90
2022-11-30T07:56:36.923Z,1020.86
2022-11-30T07:57:36.949Z,1020.86
2022-11-30T07:58:36.754Z,1020.89
2022-11-30T07:59:36.660Z,1020.90
2022-11-30T08:00:36.663Z,1020.88
2022-11-30T08:01:36.688Z,1020.88
2022-11-30T08:02:36.592Z,1020.85
2022-11-30T08:03:37.317Z,1020.82
2022-11-30T08:04:36.505Z,1020.84
2022-11-30T08:05:36.390Z,1020.83
2022-11-30T08:06:36.596Z,1020.83
2022-11-30T08:07:36.440Z,1020.85
2022-11-30T08:08:36.211Z,1020.85
2022-11-30T08:09:36.113Z,1020.84
2022-11-30T08:10:36.215Z,1020.84
2022-11-30T08:11:36.093Z,1020.87
2022-11-30T08:12:36.066Z,1020.84
2022-11-30T08:13:35.799Z,1020.92
2022-11-30T08:14:56.524Z,1020.88
2022-11-30T08:15:35.888Z,1020.90
2022-11-30T08:16:35.551Z,1020.92
2022-11-30T08:17:35.460Z,1020.93
2022-11-30T08:18:35.359Z,1020.95
2022-11-30T08:19:35.357Z,1020.95
2022-11-30T08:20:35.236Z,1020.95
2022-11-30T08:21:35.169Z,1021.02
2022-11-30T08:22:35.071Z,1020.94
2022-11-30T08:23:35.205Z,1020.99
2022-11-30T08:24:35.066Z,1021.03
2022-11-30T08:25:34.911Z,1021.00
2022-11-30T08:26:34.791Z,1021.08
2022-11-30T08:27:34.736Z,1021.03
2022-11-30T08:28:34.686Z,1021.07
2022-11-30T08:29:34.698Z,1021.02
2022-11-30T08:30:34.795Z,1021.07
2022-11-30T08:31:34.905Z,1021.07
2022-11-30T08:32:34.400Z,1021.05
2022-11-30T08:33:34.605Z,1021.05
2022-11-30T08:34:34.259Z,1021.07
2022-11-30T08:35:34.240Z,1021.08
2022-11-30T08:36:34.166Z,1021.08
2022-11-30T08:37:34.111Z,1021.13
2022-11-30T08:38:33.973Z,1021.10
2022-11-30T08:39:33.961Z,1021.12
2022-11-30T08:40:34.273Z,1020.97
2022-11-30T08:41:34.019Z,1021.14
2022-11-30T08:42:33.882Z,1021.14
2022-11-30T08:43:33.905Z,1021.11
2022-11-30T08:44:33.589Z,1021.19
2022-11-30T08:45:33.841Z,1021.22
2022-11-30T08:47:33.498Z,1021.23
2022-11-30T08:48:33.303Z,1021.25
2022-11-30T08:49:33.271Z,1021.27
2022-11-30T08:50:33.298Z,1021.25
2022-11-30T08:51:53.827Z,1021.26
2022-11-30T08:52:33.094Z,1021.26
2022-11-30T08:53:32.977Z,1021.26
2022-11-30T08:54:32.904Z,1021.29
2022-11-30T08:55:32.839Z,1021.26
2022-11-30T08:56:32.764Z,1021.30
2022-11-30T08:57:32.751Z,1021.27
2022-11-30T08:58:32.661Z,1021.27
2022-11-30T08:59:32.576Z,1021.29
2022-11-30T09:00:32.599Z,1021.20
2022-11-30T09:01:33.293Z,1021.28
2022-11-30T09:02:32.431Z,1021.28
2022-11-30T09:03:32.395Z,1021.28
2022-11-30T09:04:32.639Z,1021.29
2022-11-30T09:05:32.401Z,1021.33
2022-11-30T09:06:32.200Z,1021.32
2022-11-30T09:07:32.033Z,1021.33
2022-11-30T09:08:31.945Z,1021.35
2022-11-30T09:09:31.867Z,1021.37
2022-11-30T09:10:31.791Z,1021.36
2022-11-30T09:11:31.729Z,1021.32
2022-11-30T09:12:31.720Z,1021.30
2022-11-30T09:13:31.631Z,1021.37
2022-11-30T09:14:31.616Z,1021.39
2022-11-30T09:15:31.530Z,1021.36
2022-11-30T09:16:31.363Z,1021.38
2022-11-30T09:17:31.349Z,1021.36
2022-11-30T09:18:31.259Z,1021.39
2022-11-30T09:19:31.177Z,1021.42
2022-11-30T09:20:31.177Z,1021.42
2022-11-30T09:21:31.085Z,1021.39
2022-11-30T09:22:31.082Z,1021.35
2022-11-30T09:23:30.920Z,1021.37
2022-11-30T09:24:30.900Z,1021.40
2022-11-30T09:25:30.784Z,1021.38
2022-11-30T09:26:30.754Z,1021.35
2022-11-30T09:27:30.630Z,1021.34
2022-11-30T09:28:30.633Z,1021.32
2022-11-30T09:29:53.042Z,1021.33
2022-11-30T09:30:30.584Z,1021.29
2022-11-30T09:31:30.727Z,1021.33
2022-11-30T09:32:30.498Z,1021.33
2022-11-30T09:33:30.303Z,1021.36
2022-11-30T09:34:30.150Z,1021.33
2022-11-30T09:35:30.084Z,1021.37
2022-11-30T09:36:29.996Z,1021.39
2022-11-30T09:37:29.963Z,1021.37
2022-11-30T09:38:29.877Z,1021.40
2022-11-30T09:39:29.934Z,1021.35
2022-11-30T09:40:33.996Z,1021.38
2022-11-30T09:41:29.688Z,1021.37
2022-11-30T09:42:29.792Z,1021.36
2022-11-30T09:43:29.592Z,1021.39
2022-11-30T09:44:29.482Z,1021.39
2022-11-30T09:45:29.423Z,1021.38
2022-11-30T09:46:29.455Z,1021.38
2022-11-30T09:47:32.297Z,1021.38
2022-11-30T09:48:29.309Z,1021.39
2022-11-30T09:49:29.126Z,1021.36
2022-11-30T09:50:29.286Z,1021.33
2022-11-30T09:51:29.041Z,1021.36
2022-11-30T09:52:29.314Z,1021.37
2022-11-30T09:53:29.882Z,1021.36
2022-11-30T09:54:29.164Z,1021.37
2022-11-30T09:55:28.901Z,1021.35
2022-11-30T09:56:28.783Z,1021.35
2022-11-30T09:57:28.734Z,1021.43
2022-11-30T09:58:28.635Z,1021.36
2022-11-30T09:59:28.572Z,1021.38
2022-11-30T10:00:28.391Z,1021.36
2022-11-30T10:01:31.986Z,1021.35
2022-11-30T10:02:28.478Z,1021.33
2022-11-30T10:03:28.242Z,1021.28
2022-11-30T10:04:28.158Z,1021.28
2022-11-30T10:05:28.044Z,1021.27
2022-11-30T10:06:27.986Z,1021.28
2022-11-30T10:07:28.019Z,1021.24
2022-11-30T10:08:27.892Z,1021.24
2022-11-30T10:09:27.759Z,1021.25
2022-11-30T10:10:32.777Z,1021.22
2022-11-30T10:11:27.680Z,1021.26
2022-11-30T10:12:27.575Z,1021.21
2022-11-30T10:13:27.750Z,1021.27
2022-11-30T10:14:27.464Z,1021.26
2022-11-30T10:15:27.651Z,1021.22
2022-11-30T10:16:27.419Z,1021.28
2022-11-30T10:17:28.082Z,1021.25
2022-11-30T10:18:27.270Z,1021.25
2022-11-30T10:19:27.287Z,1021.23
2022-11-30T10:20:27.151Z,1021.28
2022-11-30T10:21:27.085Z,1021.26
2022-11-30T10:22:27.015Z,1021.25
2022-11-30T10:23:26.868Z,1021.26
2022-11-30T10:24:26.793Z,1021.28
2022-11-30T10:25:26.926Z,1021.29
2022-11-30T10:26:26.702Z,1021.33
2022-11-30T10:27:26.553Z,1021.29
2022-11-30T10:29:26.423Z,1021.29
2022-11-30T10:30:26.485Z,1021.29
2022-11-30T10:31:26.409Z,1021.27
2022-11-30T10:32:26.267Z,1021.31
2022-11-30T10:33:26.146Z,1021.31
2022-11-30T10:34:26.079Z,1021.30
2022-11-30T10:35:26.097Z,1021.33
2022-11-30T10:36:26.125Z,1021.34
2022-11-30T10:37:26.055Z,1021.34
2022-11-30T10:38:25.815Z,1021.35
2022-11-30T10:39:25.906Z,1021.35
2022-11-30T10:40:26.948Z,1021.35
2022-11-30T10:41:25.646Z,1021.35
2022-11-30T10:42:25.607Z,1021.31
2022-11-30T10:43:25.694Z,1021.32
2022-11-30T10:44:25.396Z,1021.37
2022-11-30T10:45:25.776Z,1021.33
2022-11-30T10:46:25.528Z,1021.33
2022-11-30T10:47:25.263Z,1021.26
2022-11-30T10:48:25.435Z,1021.30
2022-11-30T10:49:25.202Z,1021.29
2022-11-30T10:50:25.368Z,1021.30
2022-11-30T10:51:25.074Z,1021.22
2022-11-30T10:52:25.054Z,1021.23
2022-11-30T10:53:24.864Z,1021.28
2022-11-30T10:54:24.777Z,1021.25
2022-11-30T10:55:24.922Z,1021.26
2022-11-30T10:56:24.741Z,1021.27
2022-11-30T10:57:24.578Z,1021.33
2022-11-30T10:58:24.482Z,1021.33
2022-11-30T10:59:24.587Z,1021.28
2022-11-30T11:00:24.594Z,1021.29
2022-11-30T11:01:24.385Z,1021.32
2022-11-30T11:02:24.318Z,1021.30
2022-11-30T11:03:24.111Z,1021.37
2022-11-30T11:04:24.190Z,1021.31
2022-11-30T11:05:24.004Z,1021.31
2022-11-30T11:06:24.116Z,1021.34
2022-11-30T11:07:24.098Z,1021.28
2022-11-30T11:08:23.933Z,1021.33
2022-11-30T11:09:23.694Z,1021.30
2022-11-30T11:10:23.764Z,1021.27
2022-11-30T11:11:23.581Z,1021.29
2022-11-30T11:12:23.595Z,1021.30
2022-11-30T11:13:23.526Z,1021.30
2022-11-30T11:14:23.365Z,1021.29
2022-11-30T11:15:23.357Z,1021.31
2022-11-30T11:16:23.395Z,1021.32
2022-11-30T11:17:23.163Z,1021.36
2022-11-30T11:18:23.099Z,1021.40
2022-11-30T11:19:23.112Z,1021.38
2022-11-30T11:20:23.110Z,1021.36
2022-11-30T11:21:23.015Z,1021.34
2022-11-30T11:22:22.964Z,1021.39
2022-11-30T11:23:22.784Z,1021.37
2022-11-30T11:24:22.738Z,1021.40
2022-11-30T11:25:22.788Z,1021.45
2022-11-30T11:26:23.111Z,1021.42
2022-11-30T11:27:22.647Z,1021.45
2022-11-30T11:28:22.449Z,1021.44
2022-11-30T11:29:22.440Z,1021.45
2022-11-30T11:30:22.327Z,1021.51
2022-11-30T11:31:22.370Z,1021.50
2022-11-30T11:32:22.169Z,1021.45
2022-11-30T11:33:22.152Z,1021.46
2022-11-30T11:34:22.030Z,1021.46
2022-11-30T11:35:22.137Z,1021.45
2022-11-30T11:36:21.899Z,1021.49
2022-11-30T11:37:21.872Z,1021.48
2022-11-30T11:38:21.770Z,1021.49
2022-11-30T11:39:21.713Z,1021.50
2022-11-30T11:40:21.654Z,1021.47
2022-11-30T11:41:21.598Z,1021.51
2022-11-30T11:42:22.428Z,1021.53
2022-11-30T11:43:21.490Z,1021.52
2022-11-30T11:44:21.372Z,1021.52
2022-11-30T11:45:21.286Z,1021.54
2022-11-30T11:46:21.344Z,1021.52
2022-11-30T11:47:21.201Z,1021.56
2022-11-30T11:48:24.792Z,1021.51
2022-11-30T11:49:21.130Z,1021.51
2022-11-30T11:50:49.963Z,1021.53
2022-11-30T11:51:21.160Z,1021.51
2022-11-30T11:52:20.826Z,1021.51
2022-11-30T11:53:20.792Z,1021.53
2022-11-30T11:54:20.693Z,1021.52
2022-11-30T11:55:20.671Z,1021.53
2022-11-30T11:56:20.616Z,1021.57
2022-11-30T11:57:20.611Z,1021.56
2022-11-30T11:58:20.410Z,1021.57
2022-11-30T11:59:20.473Z,1021.56
2022-11-30T12:00:20.278Z,1021.58
2022-11-30T12:01:41.824Z,1021.55
2022-11-30T12:02:20.388Z,1021.55
2022-11-30T12:03:20.114Z,1021.56
2022-11-30T12:04:20.013Z,1021.53
2022-11-30T12:05:19.946Z,1021.55
2022-11-30T12:06:20.857Z,1021.51